createdAt,value
2023-04-15T00:00:58.344Z,58.87
2023-04-15T00:03:25.515Z,58.70
2023-04-15T00:05:52.277Z,58.41
2023-04-15T00:08:19.464Z,58.47
2023-04-15T00:10:46.703Z,58.68
2023-04-15T00:13:13.419Z,59.26
2023-04-15T00:15:40.033Z,58.54
2023-04-15T00:18:08.302Z,59.26
2023-04-15T00:20:35.770Z,59.23
2023-04-15T00:23:04.067Z,59.47
2023-04-15T00:25:30.918Z,59.04
2023-04-15T00:27:57.610Z,58.73
2023-04-15T00:30:24.250Z,58.39
2023-04-15T00:32:50.894Z,59.05
2023-04-15T00:35:21.710Z,59.37
2023-04-15T00:37:49.943Z,59.44
2023-04-15T00:40:18.705Z,59.36
2023-04-15T00:42:45.647Z,59.84
2023-04-15T00:45:12.985Z,59.05
2023-04-15T00:47:42.117Z,59.38
2023-04-15T00:50:09.621Z,59.09
2023-04-15T00:52:36.187Z,58.73
2023-04-15T00:55:04.682Z,59.10
2023-04-15T00:57:31.943Z,58.96
2023-04-15T00:59:58.884Z,59.06
2023-04-15T01:02:25.584Z,58.45
2023-04-15T01:04:52.436Z,59.29
2023-04-15T01:07:19.337Z,59.41
2023-04-15T01:09:45.954Z,59.68
2023-04-15T01:12:14.216Z,60.16
2023-04-15T01:14:41.138Z,59.49
2023-04-15T01:17:08.736Z,59.77
2023-04-15T01:19:37.007Z,59.48
2023-04-15T01:22:03.929Z,60.41
2023-04-15T01:24:31.747Z,60.02
2023-04-15T01:26:58.463Z,59.90
2023-04-15T01:29:25.131Z,59.77
2023-04-15T01:31:52.970Z,59.86
2023-04-15T01:34:19.636Z,60.00
2023-04-15T01:36:46.758Z,60.11
2023-04-15T01:39:14.674Z,60.50
2023-04-15T01:41:42.351Z,60.42
2023-04-15T01:44:09.094Z,60.27
2023-04-15T01:46:35.872Z,60.48
2023-04-15T01:49:02.662Z,61.24
2023-04-15T01:51:29.325Z,60.71
2023-04-15T01:53:57.019Z,60.94
2023-04-15T01:56:26.576Z,61.39
2023-04-15T01:58:53.395Z,61.41
2023-04-15T02:01:20.244Z,61.13
2023-04-15T02:03:48.041Z,61.52
2023-04-15T02:06:15.550Z,61.45
2023-04-15T02:08:42.151Z,61.43
2023-04-15T02:11:09.228Z,61.85
2023-04-15T02:13:36.200Z,61.92
2023-04-15T02:16:03.495Z,61.99
2023-04-15T02:18:30.466Z,61.99
2023-04-15T02:20:58.504Z,62.05
2023-04-15T02:23:25.429Z,62.09
2023-04-15T02:25:53.872Z,62.51
2023-04-15T02:28:21.975Z,63.32
2023-04-15T02:30:53.341Z,62.33
2023-04-15T02:33:21.695Z,63.00
2023-04-15T02:35:48.331Z,62.80
2023-04-15T02:38:16.762Z,63.27
2023-04-15T02:40:43.547Z,62.92
2023-04-15T02:43:10.631Z,63.41
2023-04-15T02:45:37.722Z,63.34
2023-04-15T02:48:06.652Z,63.47
2023-04-15T02:50:33.481Z,63.52
2023-04-15T02:53:01.689Z,63.95
2023-04-15T02:55:29.341Z,63.62
2023-04-15T02:57:56.171Z,63.78
2023-04-15T03:00:25.229Z,63.95
2023-04-15T03:02:56.378Z,64.05
2023-04-15T03:05:26.209Z,64.43
2023-04-15T03:07:53.283Z,64.61
2023-04-15T03:10:21.355Z,64.70
2023-04-15T03:12:48.194Z,64.54
2023-04-15T03:15:20.533Z,64.91
2023-04-15T03:17:50.997Z,64.82
2023-04-15T03:20:17.778Z,65.14
2023-04-15T03:22:44.424Z,65.30
2023-04-15T03:25:11.535Z,65.21
2023-04-15T03:27:38.622Z,65.66
2023-04-15T03:30:06.547Z,65.59
2023-04-15T03:32:36.007Z,65.38
2023-04-15T03:35:02.692Z,65.81
2023-04-15T03:37:29.226Z,65.60
2023-04-15T03:39:56.005Z,65.68
2023-04-15T03:42:22.725Z,65.82
2023-04-15T03:44:49.437Z,65.90
2023-04-15T03:47:16.379Z,66.22
2023-04-15T03:49:42.905Z,66.05
2023-04-15T03:52:09.413Z,66.39
2023-04-15T03:54:36.076Z,66.31
2023-04-15T03:57:02.635Z,66.30
2023-04-15T03:59:29.176Z,66.50
2023-04-15T04:01:56.005Z,67.06
2023-04-15T04:04:22.758Z,66.78
2023-04-15T04:06:49.315Z,67.26
2023-04-15T04:09:16.198Z,67.44
2023-04-15T04:11:42.739Z,67.13
2023-04-15T04:14:09.233Z,67.13
2023-04-15T04:16:35.779Z,67.21
2023-04-15T04:19:02.826Z,67.26
2023-04-15T04:21:29.708Z,67.46
2023-04-15T04:23:56.714Z,67.53
2023-04-15T04:26:23.440Z,67.76
2023-04-15T04:28:49.963Z,68.10
2023-04-15T04:31:16.982Z,68.12
2023-04-15T04:33:43.632Z,68.25
2023-04-15T04:36:10.510Z,68.48
2023-04-15T04:38:37.012Z,68.23
2023-04-15T04:41:03.555Z,68.29
2023-04-15T04:43:30.449Z,68.44
2023-04-15T04:45:57.003Z,68.40
2023-04-15T04:48:23.556Z,68.35
2023-04-15T04:50:50.236Z,68.89
2023-04-15T04:53:18.069Z,68.60
2023-04-15T04:55:44.623Z,68.76
2023-04-15T04:58:11.628Z,69.36
2023-04-15T05:00:38.518Z,69.45
2023-04-15T05:03:05.287Z,69.23
2023-04-15T05:05:31.954Z,69.66
2023-04-15T05:07:58.713Z,69.54
2023-04-15T05:10:25.267Z,70.26
2023-04-15T05:12:52.604Z,69.97
2023-04-15T05:15:19.190Z,70.08
2023-04-15T05:17:45.784Z,70.07
2023-04-15T05:20:12.727Z,70.13
2023-04-15T05:22:39.219Z,70.32
2023-04-15T05:25:05.951Z,70.66
2023-04-15T05:27:32.490Z,70.35
2023-04-15T05:29:58.962Z,70.46
2023-04-15T05:32:25.619Z,70.67
2023-04-15T05:34:52.260Z,70.72
2023-04-15T05:37:20.849Z,70.80
2023-04-15T05:39:48.285Z,70.52
2023-04-15T05:42:14.772Z,71.02
2023-04-15T05:44:41.673Z,71.15
2023-04-15T05:47:08.704Z,71.18
2023-04-15T05:49:35.529Z,71.42
2023-04-15T05:52:02.235Z,71.28
2023-04-15T05:54:28.929Z,71.58
2023-04-15T05:56:57.462Z,71.54
2023-04-15T05:59:24.057Z,71.60
2023-04-15T06:01:52.080Z,71.46
2023-04-15T06:04:18.706Z,71.56
2023-04-15T06:06:45.211Z,71.84
2023-04-15T06:09:11.780Z,71.78
2023-04-15T06:11:38.329Z,72.07
2023-04-15T06:14:04.918Z,72.00
2023-04-15T06:16:31.456Z,72.24
2023-04-15T06:18:57.996Z,72.18
2023-04-15T06:21:24.498Z,72.36
2023-04-15T06:23:51.117Z,72.57
2023-04-15T06:26:17.658Z,72.13
2023-04-15T06:28:44.173Z,72.55
2023-04-15T06:31:10.971Z,72.62
2023-04-15T06:33:37.736Z,72.72
2023-04-15T06:36:04.246Z,72.91
2023-04-15T06:38:30.714Z,72.81
2023-04-15T06:40:57.194Z,72.94
2023-04-15T06:43:24.160Z,73.14
2023-04-15T06:45:50.981Z,73.31
2023-04-15T06:48:17.959Z,73.33
2023-04-15T06:50:44.444Z,73.02
2023-04-15T06:53:12.370Z,73.19
2023-04-15T06:55:39.069Z,73.56
2023-04-15T06:58:05.769Z,73.43
2023-04-15T07:00:33.706Z,73.41
2023-04-15T07:03:04.034Z,74.24
2023-04-15T07:05:31.046Z,73.87
2023-04-15T07:07:57.611Z,73.87
2023-04-15T07:10:25.627Z,74.16
2023-04-15T07:12:52.588Z,74.14
2023-04-15T07:15:19.542Z,74.28
2023-04-15T07:17:46.360Z,74.22
2023-04-15T07:20:13.196Z,74.36
2023-04-15T07:22:39.771Z,74.74
2023-04-15T07:25:07.357Z,74.65
2023-04-15T07:27:33.827Z,74.47
2023-04-15T07:30:00.337Z,74.57
2023-04-15T07:32:27.360Z,74.48
2023-04-15T07:34:53.975Z,74.72
2023-04-15T07:37:20.443Z,74.29
2023-04-15T07:39:47.194Z,74.64
2023-04-15T07:42:13.697Z,74.45
2023-04-15T07:44:40.428Z,74.66
2023-04-15T07:47:06.942Z,74.44
2023-04-15T07:49:33.424Z,74.21
2023-04-15T07:52:00.538Z,74.10
2023-04-15T07:54:27.416Z,74.09
2023-04-15T07:56:54.198Z,73.55
2023-04-15T07:59:21.460Z,73.55
2023-04-15T08:01:48.214Z,73.55
2023-04-15T08:04:14.957Z,74.24
2023-04-15T08:06:41.589Z,73.57
2023-04-15T08:09:08.279Z,73.67
2023-04-15T08:11:34.895Z,72.78
2023-04-15T08:14:01.781Z,72.49
2023-04-15T08:16:28.565Z,72.96
2023-04-15T08:18:56.785Z,72.75
2023-04-15T08:21:24.061Z,71.77
2023-04-15T08:23:52.464Z,71.74
2023-04-15T08:26:20.836Z,71.44
2023-04-15T08:28:47.804Z,71.67
2023-04-15T08:31:15.457Z,70.46
2023-04-15T08:33:42.528Z,70.67
2023-04-15T08:36:09.397Z,70.23
2023-04-15T08:38:36.407Z,70.83
2023-04-15T08:41:07.202Z,70.65
2023-04-15T08:43:35.832Z,70.75
2023-04-15T08:46:04.232Z,69.03
2023-04-15T08:48:33.337Z,68.61
2023-04-15T08:51:00.773Z,68.65
2023-04-15T08:53:29.653Z,67.90
2023-04-15T08:55:57.781Z,68.21
2023-04-15T08:58:25.407Z,68.25
2023-04-15T09:00:52.232Z,66.27
2023-04-15T09:03:19.250Z,67.65
2023-04-15T09:05:46.979Z,67.87
2023-04-15T09:08:13.690Z,66.84
2023-04-15T09:10:40.259Z,67.10
2023-04-15T09:13:06.855Z,67.04
2023-04-15T09:15:33.732Z,66.76
2023-04-15T09:18:00.368Z,66.41
2023-04-15T09:20:27.289Z,66.49
2023-04-15T09:22:54.038Z,65.80
2023-04-15T09:25:23.322Z,65.23
2023-04-15T09:27:54.148Z,65.57
2023-04-15T09:30:21.178Z,64.97
2023-04-15T09:32:59.246Z,64.19
2023-04-15T09:35:27.605Z,64.90
2023-04-15T09:38:03.076Z,64.95
2023-04-15T09:40:37.428Z,65.68
2023-04-15T09:43:05.249Z,65.15
2023-04-15T09:45:33.539Z,66.00
2023-04-15T09:48:14.920Z,63.55
2023-04-15T09:50:42.683Z,65.23
2023-04-15T09:53:15.644Z,65.07
2023-04-15T09:55:58.471Z,65.59
2023-04-15T09:58:31.712Z,65.77
2023-04-15T10:00:59.669Z,64.51
2023-04-15T10:03:28.267Z,64.40
2023-04-15T10:06:00.596Z,63.42
2023-04-15T10:08:29.357Z,63.01
2023-04-15T10:10:56.750Z,62.83
2023-04-15T10:13:25.005Z,63.22
2023-04-15T10:15:58.111Z,62.35
2023-04-15T10:18:26.970Z,63.47
2023-04-15T10:20:54.388Z,62.56
2023-04-15T10:23:22.550Z,63.13
2023-04-15T10:25:51.187Z,62.78
2023-04-15T10:28:17.699Z,63.47
2023-04-15T10:30:44.586Z,63.00
2023-04-15T10:33:11.343Z,63.97
2023-04-15T10:35:39.207Z,61.66
2023-04-15T10:38:35.098Z,62.96
2023-04-15T10:41:22.341Z,62.43
2023-04-15T10:43:54.510Z,61.12
2023-04-15T10:46:41.342Z,60.55
2023-04-15T10:49:13.081Z,58.60
2023-04-15T10:51:44.263Z,61.00
2023-04-15T10:54:14.601Z,59.14
2023-04-15T10:56:43.734Z,59.53
2023-04-15T10:59:10.468Z,58.39
2023-04-15T11:01:53.656Z,59.86
2023-04-15T11:04:57.438Z,60.21
2023-04-15T11:07:38.425Z,58.86
2023-04-15T11:10:31.192Z,60.23
2023-04-15T11:12:59.472Z,61.01
2023-04-15T11:15:40.982Z,60.94
2023-04-15T11:18:14.280Z,59.41
2023-04-15T11:20:44.994Z,61.49
2023-04-15T11:23:15.095Z,61.29
2023-04-15T11:25:43.076Z,59.89
2023-04-15T11:28:10.925Z,60.07
2023-04-15T11:30:38.820Z,60.20
2023-04-15T11:33:07.019Z,59.28
2023-04-15T11:35:34.471Z,61.40
2023-04-15T11:38:19.138Z,61.04
2023-04-15T11:40:47.235Z,59.98
2023-04-15T11:43:21.126Z,60.50
2023-04-15T11:45:53.874Z,60.06
2023-04-15T11:48:22.989Z,60.32
2023-04-15T11:50:59.452Z,61.41
2023-04-15T11:53:42.519Z,60.49
2023-04-15T11:56:20.979Z,59.28
2023-04-15T11:58:49.812Z,57.14
2023-04-15T12:01:16.361Z,56.68
2023-04-15T12:03:45.897Z,57.55
2023-04-15T12:06:25.581Z,58.06
2023-04-15T12:09:07.310Z,58.30
2023-04-15T12:11:47.412Z,57.63
2023-04-15T12:14:42.337Z,58.00
2023-04-15T12:17:10.635Z,58.23
2023-04-15T12:19:40.012Z,59.25
2023-04-15T12:22:10.145Z,59.40
2023-04-15T12:24:38.405Z,58.18
2023-04-15T12:27:10.620Z,57.51
2023-04-15T12:29:39.039Z,58.80
2023-04-15T12:32:07.646Z,58.07
2023-04-15T12:34:36.343Z,57.31
2023-04-15T12:37:04.708Z,57.97
2023-04-15T12:39:36.841Z,58.76
2023-04-15T12:42:04.307Z,57.63
2023-04-15T12:44:31.023Z,57.30
2023-04-15T12:46:57.999Z,57.28
2023-04-15T12:49:25.508Z,56.42
2023-04-15T12:51:57.435Z,56.03
2023-04-15T12:54:23.994Z,57.62
2023-04-15T12:56:51.266Z,56.60
2023-04-15T12:59:18.735Z,56.17
2023-04-15T13:01:47.221Z,55.76
2023-04-15T13:04:14.571Z,55.75
2023-04-15T13:06:41.401Z,55.28
2023-04-15T13:09:07.902Z,54.90
2023-04-15T13:11:34.948Z,54.55
2023-04-15T13:14:05.677Z,54.53
2023-04-15T13:16:33.862Z,55.22
2023-04-15T13:19:01.452Z,54.46
2023-04-15T13:21:28.417Z,55.04
2023-04-15T13:23:55.688Z,54.97
2023-04-15T13:26:22.338Z,54.73
2023-04-15T13:28:48.931Z,55.00
2023-04-15T13:31:15.739Z,54.49
2023-04-15T13:33:42.245Z,56.34
2023-04-15T13:36:09.145Z,56.42
2023-04-15T13:38:35.696Z,54.68
2023-04-15T13:41:02.271Z,54.99
2023-04-15T13:43:28.830Z,55.63
2023-04-15T13:45:56.561Z,55.99
2023-04-15T13:48:23.224Z,57.40
2023-04-15T13:50:50.243Z,56.51
2023-04-15T13:53:16.757Z,56.54
2023-04-15T13:55:43.251Z,57.30
2023-04-15T13:58:10.240Z,56.21
2023-04-15T14:00:37.081Z,55.87
2023-04-15T14:03:04.538Z,55.49
2023-04-15T14:05:31.135Z,54.96
2023-04-15T14:07:59.097Z,54.35
2023-04-15T14:10:25.723Z,54.75
2023-04-15T14:12:52.278Z,54.38
2023-04-15T14:15:18.969Z,53.89
2023-04-15T14:17:45.695Z,53.89
2023-04-15T14:20:13.206Z,55.39
2023-04-15T14:22:40.897Z,55.21
2023-04-15T14:25:07.736Z,55.30
2023-04-15T14:27:34.387Z,54.75
2023-04-15T14:30:00.959Z,53.88
2023-04-15T14:32:27.836Z,54.42
2023-04-15T14:34:54.369Z,53.90
2023-04-15T14:37:21.061Z,54.83
2023-04-15T14:39:47.631Z,55.14
2023-04-15T14:42:14.218Z,55.32
2023-04-15T14:44:40.732Z,55.03
2023-04-15T14:47:07.442Z,54.04
2023-04-15T14:49:33.924Z,54.41
2023-04-15T14:52:00.642Z,55.68
2023-04-15T14:54:27.202Z,55.20
2023-04-15T14:56:53.739Z,54.89
2023-04-15T14:59:20.410Z,55.28
2023-04-15T15:01:47.042Z,54.61
2023-04-15T15:04:13.768Z,55.43
2023-04-15T15:06:42.455Z,55.97
2023-04-15T15:09:09.174Z,56.46
2023-04-15T15:11:35.815Z,55.98
2023-04-15T15:14:02.426Z,55.66
2023-04-15T15:16:29.280Z,54.58
2023-04-15T15:18:56.051Z,55.81
2023-04-15T15:21:22.779Z,55.61
2023-04-15T15:23:49.388Z,55.43
2023-04-15T15:26:15.921Z,55.09
2023-04-15T15:28:42.446Z,56.34
2023-04-15T15:31:09.040Z,55.54
2023-04-15T15:33:35.713Z,55.89
2023-04-15T15:36:03.502Z,56.51
2023-04-15T15:38:30.051Z,56.17
2023-04-15T15:40:56.624Z,57.40
2023-04-15T15:43:23.227Z,57.88
2023-04-15T15:45:51.725Z,58.86
2023-04-15T15:48:18.615Z,58.34
2023-04-15T15:50:45.766Z,59.45
2023-04-15T15:53:17.757Z,59.45
2023-04-15T15:55:44.308Z,59.69
2023-04-15T15:58:11.305Z,59.31
2023-04-15T16:00:37.827Z,59.19
2023-04-15T16:03:07.213Z,59.66
2023-04-15T16:05:34.890Z,58.04
2023-04-15T16:08:01.834Z,58.47
2023-04-15T16:10:28.772Z,58.83
2023-04-15T16:12:55.663Z,57.77
2023-04-15T16:15:23.906Z,57.50
2023-04-15T16:17:50.950Z,57.45
2023-04-15T16:20:17.764Z,58.18
2023-04-15T16:22:44.317Z,58.17
2023-04-15T16:25:10.915Z,59.47
2023-04-15T16:27:50.281Z,58.57
2023-04-15T16:30:24.204Z,59.04
2023-04-15T16:32:51.550Z,59.02
2023-04-15T16:35:18.388Z,58.35
2023-04-15T16:37:44.936Z,58.74
2023-04-15T16:40:12.058Z,59.18
2023-04-15T16:42:38.731Z,59.05
2023-04-15T16:45:05.714Z,59.87
2023-04-15T16:47:32.290Z,59.56
2023-04-15T16:49:58.870Z,59.82
2023-04-15T16:52:25.690Z,60.08
2023-04-15T16:54:52.332Z,60.46
2023-04-15T16:57:18.811Z,61.10
2023-04-15T16:59:45.346Z,61.49
2023-04-15T17:02:13.683Z,61.92
2023-04-15T17:04:41.507Z,62.01
2023-04-15T17:07:10.885Z,62.23
2023-04-15T17:09:39.855Z,62.33
2023-04-15T17:12:07.404Z,62.52
2023-04-15T17:14:34.998Z,62.16
2023-04-15T17:17:01.898Z,62.04
2023-04-15T17:19:28.477Z,62.18
2023-04-15T17:21:55.246Z,62.32
2023-04-15T17:24:21.959Z,62.67
2023-04-15T17:26:48.715Z,62.64
2023-04-15T17:29:15.346Z,62.86
2023-04-15T17:31:42.123Z,63.03
2023-04-15T17:34:10.056Z,63.33
2023-04-15T17:36:37.984Z,63.15
2023-04-15T17:39:04.830Z,63.30
2023-04-15T17:41:31.505Z,63.07
2023-04-15T17:43:58.032Z,63.07
2023-04-15T17:46:24.678Z,63.32
2023-04-15T17:48:51.181Z,63.63
2023-04-15T17:51:17.837Z,63.52
2023-04-15T17:53:44.303Z,63.47
2023-04-15T17:56:11.026Z,63.73
2023-04-15T17:58:39.184Z,63.75
2023-04-15T18:01:06.288Z,64.15
2023-04-15T18:03:32.987Z,64.23
2023-04-15T18:06:01.252Z,64.66
2023-04-15T18:08:28.956Z,64.79
2023-04-15T18:10:56.319Z,64.40
2023-04-15T18:13:22.923Z,64.88
2023-04-15T18:15:51.190Z,65.00
2023-04-15T18:18:17.706Z,64.97
2023-04-15T18:20:44.336Z,65.30
2023-04-15T18:23:10.965Z,65.72
2023-04-15T18:25:38.299Z,65.73
2023-04-15T18:28:05.548Z,65.88
2023-04-15T18:30:32.098Z,66.13
2023-04-15T18:32:58.692Z,65.55
2023-04-15T18:35:25.255Z,65.59
2023-04-15T18:37:52.872Z,65.80
2023-04-15T18:40:19.415Z,66.25
2023-04-15T18:42:46.016Z,66.37
2023-04-15T18:45:12.656Z,65.97
2023-04-15T18:47:39.452Z,66.09
2023-04-15T18:50:07.245Z,65.84
2023-04-15T18:52:34.189Z,65.91
2023-04-15T18:55:03.001Z,65.88
2023-04-15T18:57:34.960Z,65.71
2023-04-15T19:00:04.591Z,66.27
2023-04-15T19:02:31.227Z,66.21
2023-04-15T19:04:57.896Z,66.74
2023-04-15T19:07:24.884Z,67.21
2023-04-15T19:09:51.484Z,67.58
2023-04-15T19:12:18.037Z,68.00
2023-04-15T19:14:44.593Z,68.29
2023-04-15T19:17:11.242Z,68.33
2023-04-15T19:19:38.468Z,69.25
2023-04-15T19:22:05.698Z,69.12
2023-04-15T19:24:33.216Z,69.45
2023-04-15T19:26:59.821Z,69.64
2023-04-15T19:29:26.441Z,69.52
2023-04-15T19:31:53.018Z,69.96
2023-04-15T19:34:19.607Z,70.07
2023-04-15T19:36:46.189Z,69.88
2023-04-15T19:39:13.488Z,70.54
2023-04-15T19:41:40.104Z,70.74
2023-04-15T19:44:06.740Z,70.85
2023-04-15T19:46:33.434Z,70.95
2023-04-15T19:49:00.925Z,70.83
2023-04-15T19:51:28.371Z,70.79
2023-04-15T19:53:56.716Z,71.33
2023-04-15T19:56:24.066Z,71.32
2023-04-15T19:58:52.959Z,71.23
2023-04-15T20:01:20.260Z,71.17
2023-04-15T20:03:47.230Z,71.20
2023-04-15T20:06:15.169Z,71.50
2023-04-15T20:08:41.726Z,71.11
2023-04-15T20:11:09.654Z,71.26
2023-04-15T20:13:36.661Z,71.59
2023-04-15T20:16:03.469Z,71.74
2023-04-15T20:18:30.081Z,71.80
2023-04-15T20:20:56.607Z,71.87
2023-04-15T20:23:23.232Z,72.05
2023-04-15T20:25:49.721Z,72.29
2023-04-15T20:28:18.038Z,72.77
2023-04-15T20:30:45.351Z,72.23
2023-04-15T20:33:12.062Z,72.83
2023-04-15T20:35:38.926Z,73.50
2023-04-15T20:38:05.714Z,73.64
2023-04-15T20:40:34.954Z,74.07
2023-04-15T20:43:01.505Z,73.98
2023-04-15T20:45:28.000Z,74.86
2023-04-15T20:47:55.964Z,74.90
2023-04-15T20:50:22.485Z,75.33
2023-04-15T20:52:48.978Z,75.21
2023-04-15T20:55:15.660Z,75.34
2023-04-15T20:57:42.177Z,75.45
2023-04-15T21:00:11.903Z,76.16
2023-04-15T21:02:38.580Z,76.22
2023-04-15T21:05:05.884Z,76.07
2023-04-15T21:07:32.697Z,75.42
2023-04-15T21:09:59.506Z,75.79
2023-04-15T21:12:26.126Z,75.64
2023-04-15T21:14:52.618Z,75.27
2023-04-15T21:17:19.248Z,75.39
2023-04-15T21:19:45.870Z,75.68
2023-04-15T21:22:12.431Z,75.96
2023-04-15T21:24:39.013Z,76.25
2023-04-15T21:27:05.836Z,75.92
2023-04-15T21:29:32.324Z,76.35
2023-04-15T21:31:58.820Z,76.62
2023-04-15T21:34:25.401Z,76.95
2023-04-15T21:36:51.948Z,77.68
2023-04-15T21:39:18.573Z,77.20
2023-04-15T21:41:45.162Z,77.13
2023-04-15T21:44:14.449Z,76.96
2023-04-15T21:46:41.516Z,77.03
2023-04-15T21:49:12.305Z,76.70
2023-04-15T21:51:38.896Z,77.11
2023-04-15T21:54:05.569Z,77.35
2023-04-15T21:56:32.709Z,77.03
2023-04-15T21:58:59.414Z,77.53
2023-04-15T22:01:26.507Z,77.66
2023-04-15T22:03:53.346Z,77.91
2023-04-15T22:06:20.407Z,78.19
2023-04-15T22:08:56.273Z,78.49
2023-04-15T22:11:28.438Z,78.46
2023-04-15T22:13:55.555Z,78.62
2023-04-15T22:16:22.246Z,79.22
2023-04-15T22:18:48.963Z,79.26
2023-04-15T22:21:15.548Z,79.36
2023-04-15T22:23:45.734Z,79.85
2023-04-15T22:26:12.307Z,79.88
2023-04-15T22:28:38.878Z,79.95
2023-04-15T22:31:05.479Z,80.18
2023-04-15T22:33:32.037Z,80.16
2023-04-15T22:35:58.591Z,80.31
2023-04-15T22:38:25.322Z,80.54
2023-04-15T22:40:53.875Z,81.20
2023-04-15T22:43:20.450Z,81.16
2023-04-15T22:45:51.083Z,81.59
2023-04-15T22:48:18.589Z,81.38
2023-04-15T22:50:45.679Z,82.01
2023-04-15T22:53:12.770Z,82.14
2023-04-15T22:55:39.328Z,81.98
2023-04-15T22:58:05.861Z,81.99
2023-04-15T23:00:32.379Z,82.45
2023-04-15T23:02:58.990Z,82.23
2023-04-15T23:05:25.755Z,82.52
2023-04-15T23:07:52.366Z,82.78
2023-04-15T23:10:18.892Z,83.13
2023-04-15T23:12:45.472Z,83.21
2023-04-15T23:15:11.951Z,83.39
2023-04-15T23:17:38.675Z,83.54
2023-04-15T23:20:05.721Z,83.61
2023-04-15T23:22:32.270Z,84.05
2023-04-15T23:24:58.760Z,84.21
2023-04-15T23:27:25.337Z,84.03
2023-04-15T23:29:51.827Z,84.50
2023-04-15T23:32:18.408Z,84.32
2023-04-15T23:34:44.916Z,85.11
2023-04-15T23:37:11.394Z,85.06
2023-04-15T23:39:37.869Z,84.74
2023-04-15T23:42:04.476Z,85.16
2023-04-15T23:44:30.955Z,85.03
2023-04-15T23:46:57.493Z,85.18
2023-04-15T23:49:24.066Z,85.01
2023-04-15T23:51:50.947Z,85.08
2023-04-15T23:54:17.453Z,85.03
2023-04-15T23:56:43.988Z,84.64
2023-04-15T23:59:10.738Z,84.83
